Time;durP1;ratioP1;P1;durP2;ratioP2;P2;SDS_P1;SDS_P2;PMS_P1;PMS_P2;Temp;Humidity;BMP_temperature;BMP_pressure;BME280_temperature;BME280_humidity;BME280_pressure;Samples;Min_cycle;Max_cycle;Signal;HPM_P1;HPM_P2
2022/05/10 00:01:31;;;;;;;;;18.00;14.50;;;26.33;98276.88;;;;117105;1193;26298;-64
2022/05/10 00:04:01;;;;;;;;;13.75;13.75;;;26.34;98271.73;;;;117063;1193;24872;-63
2022/05/10 00:06:39;;;;;;;;;14.00;13.00;;;26.33;98268.89;;;;117103;1193;26229;-64
2022/05/10 00:09:12;;;;;;;;;12.50;12.50;;;26.35;98266.35;;;;117016;1193;24867;-62
2022/05/10 00:11:41;;;;;;;;;14.00;11.50;;;26.36;98264.52;;;;117101;1193;25279;-63
2022/05/10 00:14:10;;;;;;;;;16.00;15.25;;;26.35;98264.02;;;;117059;1193;25540;-65
2022/05/10 00:16:42;;;;;;;;;9.00;8.00;;;26.32;98261.45;;;;117282;1189;25352;-64
2022/05/10 00:19:18;;;;;;;;;15.50;14.50;;;26.29;98261.48;;;;117121;1193;26033;-65
2022/05/10 00:21:49;;;;;;;;;18.25;13.50;;;26.30;98259.08;;;;117140;1193;24853;-63
2022/05/10 00:24:19;;;;;;;;;14.25;13.75;;;26.33;98257.36;;;;117070;1191;25605;-63
2022/05/10 00:26:52;;;;;;;;;20.75;15.75;;;26.30;98255.98;;;;117092;1191;24868;-63
2022/05/10 00:29:21;;;;;;;;;19.50;13.75;;;26.28;98255.31;;;;117091;1193;25003;-62
2022/05/10 00:31:52;;;;;;;;;19.33;15.67;;;26.27;98257.06;;;;117072;1192;25439;-62
2022/05/10 00:34:21;;;;;;;;;19.00;14.50;;;26.25;98258.98;;;;117013;1193;26531;-61
2022/05/10 00:36:51;;;;;;;;;18.50;17.50;;;26.25;98257.80;;;;116995;1194;25349;-63
2022/05/10 00:39:20;;;;;;;;;15.00;12.75;;;26.24;98253.39;;;;117046;1193;25280;-61
2022/05/10 00:41:59;;;;;;;;;18.50;15.25;;;26.25;98249.63;;;;117067;1193;26178;-62
2022/05/10 00:44:39;;;;;;;;;16.25;16.25;;;26.25;98244.20;;;;117120;1192;24973;-61
2022/05/10 00:47:24;;;;;;;;;13.33;13.33;;;26.27;98242.03;;;;117099;1193;25560;-62
2022/05/10 00:50:02;;;;;;;;;18.00;14.33;;;26.27;98242.24;;;;117092;1193;25911;-61
2022/05/10 00:52:49;;;;;;;;;17.00;15.25;;;26.28;98238.33;;;;117069;1191;25109;-62
2022/05/10 00:55:25;;;;;;;;;12.75;11.50;;;26.31;98233.32;;;;117069;1193;25491;-62
2022/05/10 00:58:09;;;;;;;;;16.33;13.33;;;26.31;98235.77;;;;117029;1193;24827;-62
2022/05/10 01:00:38;;;;;;;;;19.75;15.50;;;26.31;98235.12;;;;117104;1193;24845;-61
2022/05/10 01:03:23;;;;;;;;;14.50;13.75;;;26.30;98232.84;;;;117042;1192;25457;-62
2022/05/10 01:06:09;;;;;;;;;12.50;11.50;;;26.28;98236.88;;;;117101;1192;25278;-61
2022/05/10 01:09:01;;;;;;;;;13.50;11.50;;;26.29;98231.36;;;;117088;1191;24831;-61
2022/05/10 01:11:38;;;;;;;;;15.33;12.67;;;26.31;98231.95;;;;117054;1192;25173;-61
2022/05/10 01:14:18;;;;;;;;;13.00;13.00;;;26.28;98231.85;;;;117102;1191;25620;-61
2022/05/10 01:16:46;;;;;;;;;12.33;10.33;;;26.24;98231.12;;;;117156;1193;25666;-61
2022/05/10 01:19:15;;;;;;;;;17.75;16.25;;;26.26;98230.73;;;;117091;1193;25018;-62
2022/05/10 01:22:25;;;;;;;;;16.33;16.33;;;26.21;98230.39;;;;117082;1192;25025;-61
2022/05/10 01:24:57;;;;;;;;;15.00;14.50;;;26.20;98231.03;;;;117125;1193;24912;-61
2022/05/10 01:27:54;;;;;;;;;12.33;11.67;;;26.17;98229.73;;;;117156;1193;25716;-61
2022/05/10 01:30:27;;;;;;;;;14.75;12.00;;;26.20;98229.95;;;;117106;1193;25631;-62
2022/05/10 01:36:14;;;;;;;;;14.50;12.50;;;26.23;98231.33;;;;116971;1193;25114;-62
2022/05/10 01:39:04;;;;;;;;;14.75;13.25;;;26.18;98232.05;;;;117005;1193;25468;-62
2022/05/10 01:41:50;;;;;;;;;13.33;12.33;;;26.17;98232.92;;;;117141;1193;25420;-62
2022/05/10 01:44:40;;;;;;;;;16.00;13.50;;;26.22;98234.93;;;;117003;1192;25300;-62
2022/05/10 01:47:21;;;;;;;;;12.00;11.67;;;26.21;98233.79;;;;117304;1193;25447;-62
2022/05/10 01:50:00;;;;;;;;;12.75;11.25;;;26.27;98231.39;;;;116974;1194;25759;-61
2022/05/10 01:52:41;;;;;;;;;13.00;12.67;;;26.21;98227.80;;;;117148;1193;25686;-61
2022/05/10 01:55:32;;;;;;;;;11.75;11.75;;;26.22;98224.40;;;;117112;1193;25436;-61
2022/05/10 01:58:08;;;;;;;;;12.00;11.50;;;26.22;98222.53;;;;117274;1191;24725;-61
2022/05/10 02:00:42;;;;;;;;;14.00;10.75;;;26.24;98223.54;;;;117098;1191;24921;-62
2022/05/10 02:03:30;;;;;;;;;12.25;11.50;;;26.23;98229.33;;;;117234;1193;25049;-63
2022/05/10 02:06:33;;;;;;;;;10.75;10.00;;;26.26;98235.05;;;;117114;1193;25395;-62
2022/05/10 02:09:21;;;;;;;;;10.75;10.75;;;26.20;98239.71;;;;117091;1192;24922;-63
2022/05/10 02:12:00;;;;;;;;;11.00;10.33;;;26.19;98236.89;;;;117209;1191;25274;-62
2022/05/10 02:14:35;;;;;;;;;12.50;9.00;;;26.17;98237.80;;;;117111;1193;26749;-62
2022/05/10 02:17:19;;;;;;;;;11.00;9.33;;;26.14;98234.66;;;;117165;1193;25014;-62
2022/05/10 02:20:02;;;;;;;;;13.00;12.00;;;26.15;98232.45;;;;117129;1192;25706;-63
2022/05/10 02:22:53;;;;;;;;;15.50;14.00;;;26.16;98231.41;;;;117063;1193;25715;-62
2022/05/10 02:25:35;;;;;;;;;13.00;12.00;;;26.20;98226.65;;;;117034;1193;25078;-62
2022/05/10 02:28:44;;;;;;;;;10.75;8.50;;;26.22;98222.64;;;;117056;1193;24859;-62
2022/05/10 02:34:40;;;;;;;;;12.67;11.33;;;26.30;98221.55;;;;117065;1192;25821;-62
2022/05/10 02:37:10;;;;;;;;;9.00;8.00;;;26.26;98219.63;;;;117237;1191;25194;-62
2022/05/10 02:39:38;;;;;;;;;13.25;10.25;;;26.23;98218.27;;;;117114;1193;24930;-62
2022/05/10 02:42:13;;;;;;;;;12.50;11.50;;;26.17;98217.27;;;;117141;1193;25755;-62
2022/05/10 02:44:42;;;;;;;;;10.00;10.00;;;26.14;98220.30;;;;117177;1192;25184;-63
2022/05/10 02:47:11;;;;;;;;;14.75;12.25;;;26.11;98216.85;;;;117177;1192;25049;-62
2022/05/10 02:49:40;;;;;;;;;11.33;11.33;;;26.12;98219.08;;;;117152;1193;25315;-62
2022/05/10 02:52:10;;;;;;;;;12.00;11.00;;;26.09;98224.67;;;;117125;1192;25505;-62
2022/05/10 02:54:42;;;;;;;;;9.00;9.00;;;26.07;98225.04;;;;117080;1192;25495;-62
2022/05/10 02:57:11;;;;;;;;;8.00;8.00;;;26.06;98224.65;;;;117083;1193;25655;-62
2022/05/10 02:59:43;;;;;;;;;13.75;12.50;;;26.04;98223.47;;;;117143;1192;25088;-62
2022/05/10 03:02:21;;;;;;;;;9.00;9.00;;;26.05;98221.63;;;;117093;1192;25151;-62
2022/05/10 03:04:58;;;;;;;;;12.00;11.00;;;26.05;98222.83;;;;117086;1193;24888;-62
2022/05/10 03:07:29;;;;;;;;;11.75;11.25;;;26.06;98219.14;;;;117106;1192;25933;-62
2022/05/10 03:09:58;;;;;;;;;12.33;11.33;;;26.05;98218.84;;;;117082;1193;25526;-61
2022/05/10 03:12:30;;;;;;;;;9.75;9.25;;;26.04;98215.85;;;;117120;1192;24993;-61
2022/05/10 03:15:01;;;;;;;;;10.50;8.50;;;26.01;98218.90;;;;117115;1191;26149;-61
2022/05/10 03:17:32;;;;;;;;;13.50;11.00;;;26.01;98218.83;;;;117142;1192;25638;-62
2022/05/10 03:20:02;;;;;;;;;8.75;7.50;;;26.02;98221.00;;;;117095;1192;25675;-62
2022/05/10 03:22:33;;;;;;;;;12.00;11.00;;;26.01;98222.06;;;;117063;1193;26078;-62
2022/05/10 03:25:00;;;;;;;;;11.25;10.75;;;26.01;98221.15;;;;117097;1191;25510;-61
2022/05/10 03:27:30;;;;;;;;;10.50;10.25;;;26.01;98221.38;;;;117161;1192;25161;-61
2022/05/10 03:29:59;;;;;;;;;12.25;10.50;;;26.00;98219.56;;;;117136;1193;24688;-61
2022/05/10 03:32:31;;;;;;;;;9.67;9.00;;;26.00;98218.48;;;;117100;1192;24890;-61
2022/05/10 03:35:00;;;;;;;;;9.67;9.67;;;26.00;98218.56;;;;117114;1192;25008;-63
2022/05/10 03:37:31;;;;;;;;;12.50;9.00;;;26.00;98217.23;;;;117094;1192;25229;-62
2022/05/10 03:40:00;;;;;;;;;13.50;12.00;;;25.98;98218.37;;;;117117;1192;24954;-62
2022/05/10 03:42:33;;;;;;;;;9.33;8.00;;;25.96;98211.48;;;;117113;1192;25595;-62
2022/05/10 03:45:01;;;;;;;;;11.00;8.33;;;25.96;98209.58;;;;117165;1193;25511;-62
2022/05/10 03:47:32;;;;;;;;;10.00;9.33;;;25.99;98210.90;;;;117092;1193;25111;-62
2022/05/10 03:50:05;;;;;;;;;9.25;8.00;;;25.93;98212.55;;;;117155;1193;26198;-63
2022/05/10 03:52:40;;;;;;;;;13.25;10.50;;;25.97;98214.07;;;;117070;1193;25245;-62
2022/05/10 03:55:15;;;;;;;;;10.75;9.75;;;25.98;98212.33;;;;117113;1193;25404;-63
2022/05/10 03:57:44;;;;;;;;;9.50;8.50;;;26.04;98212.02;;;;117165;1193;25393;-63
2022/05/10 04:00:20;;;;;;;;;9.33;8.33;;;26.09;98207.27;;;;117133;1193;25185;-61
2022/05/10 04:02:55;;;;;;;;;11.50;8.00;;;26.18;98209.65;;;;116988;1193;24842;-61
2022/05/10 04:05:25;;;;;;;;;13.50;8.00;;;26.14;98213.45;;;;117104;1193;25749;-62
2022/05/10 04:07:56;;;;;;;;;8.67;8.67;;;26.14;98210.52;;;;117023;1193;24867;-65
2022/05/10 04:10:26;;;;;;;;;9.75;9.50;;;26.19;98209.29;;;;116962;1193;25684;-64
2022/05/10 04:12:57;;;;;;;;;11.50;9.50;;;26.17;98212.59;;;;117198;1192;24964;-63
2022/05/10 04:15:27;;;;;;;;;9.67;9.00;;;26.21;98216.44;;;;117250;1192;25881;-62
2022/05/10 04:17:58;;;;;;;;;11.50;10.75;;;26.28;98218.06;;;;117123;1193;25430;-65
2022/05/10 04:20:33;;;;;;;;;10.00;8.50;;;26.32;98218.88;;;;117454;1193;25022;-66
2022/05/10 04:23:05;;;;;;;;;10.00;9.00;;;26.36;98221.02;;;;117000;1193;25051;-65
2022/05/10 04:25:34;;;;;;;;;14.67;11.00;;;26.36;98225.85;;;;117408;1192;25354;-63
2022/05/10 04:28:05;;;;;;;;;16.33;11.00;;;26.39;98230.45;;;;116993;1193;26068;-64
2022/05/10 04:30:36;;;;;;;;;9.75;9.75;;;26.35;98235.27;;;;117250;1192;24724;-64
2022/05/10 04:33:08;;;;;;;;;14.00;12.00;;;26.37;98235.66;;;;117072;1193;25313;-63
2022/05/10 04:35:40;;;;;;;;;11.50;8.00;;;26.36;98232.63;;;;117041;1192;25559;-64
2022/05/10 04:38:08;;;;;;;;;14.00;12.00;;;26.31;98231.89;;;;117078;1193;25580;-63
2022/05/10 04:43:27;;;;;;;;;11.50;8.75;;;26.32;98235.73;;;;117073;1193;25689;-64
2022/05/10 04:45:57;;;;;;;;;10.75;10.25;;;26.31;98238.69;;;;117190;1191;25279;-64
2022/05/10 04:48:27;;;;;;;;;11.67;10.67;;;26.34;98241.23;;;;117016;1193;25573;-64
2022/05/10 04:50:58;;;;;;;;;13.50;13.25;;;26.31;98243.05;;;;117109;1193;25471;-63
2022/05/10 04:53:30;;;;;;;;;8.50;8.50;;;26.30;98246.23;;;;117075;1193;25600;-66
2022/05/10 04:56:04;;;;;;;;;10.25;8.50;;;26.25;98246.80;;;;117001;1193;25150;-65
2022/05/10 04:58:35;;;;;;;;;11.50;9.75;;;26.29;98248.08;;;;117068;1193;25238;-64
2022/05/10 05:01:08;;;;;;;;;14.00;12.33;;;26.29;98250.61;;;;117170;1193;25676;-64
2022/05/10 05:03:47;;;;;;;;;14.75;11.50;;;26.32;98253.18;;;;117118;1193;25163;-65
2022/05/10 05:06:18;;;;;;;;;12.25;10.25;;;26.36;98251.55;;;;117251;1192;25101;-65
2022/05/10 05:08:48;;;;;;;;;12.00;11.00;;;26.42;98250.46;;;;117015;1193;24962;-65
2022/05/10 05:11:17;;;;;;;;;13.50;11.50;;;26.41;98252.81;;;;117096;1193;25662;-64
2022/05/10 05:13:47;;;;;;;;;12.25;12.25;;;26.41;98257.32;;;;117390;1193;25446;-65
2022/05/10 05:16:16;;;;;;;;;11.50;8.50;;;26.50;98261.83;;;;116943;1193;25132;-64
2022/05/10 05:18:45;;;;;;;;;12.25;12.25;;;26.44;98264.60;;;;117131;1193;25507;-64
2022/05/10 05:21:16;;;;;;;;;15.75;13.50;;;26.44;98260.34;;;;117259;1193;25351;-67
2022/05/10 05:23:45;;;;;;;;;17.25;14.25;;;26.49;98254.49;;;;117016;1193;25378;-66
2022/05/10 05:26:15;;;;;;;;;15.25;12.75;;;26.42;98253.58;;;;117040;1193;24894;-65
2022/05/10 05:28:44;;;;;;;;;15.33;14.33;;;26.40;98256.68;;;;117001;1193;24821;-62
2022/05/10 05:31:17;;;;;;;;;10.67;10.33;;;26.40;98254.11;;;;117067;1193;24982;-65
2022/05/10 05:33:49;;;;;;;;;12.50;11.50;;;26.46;98253.88;;;;117183;1193;25182;-64
2022/05/10 05:36:17;;;;;;;;;12.33;12.33;;;26.62;98256.13;;;;117215;1193;25005;-65
2022/05/10 05:38:45;;;;;;;;;19.33;15.00;;;26.73;98253.98;;;;117015;1193;25308;-60
2022/05/10 05:41:13;;;;;;;;;13.50;13.00;;;26.78;98256.13;;;;117109;1193;25540;-60
2022/05/10 05:43:41;;;;;;;;;14.67;12.00;;;26.86;98256.72;;;;117125;1193;25280;-59
2022/05/10 05:46:11;;;;;;;;;21.25;14.00;;;26.95;98256.15;;;;117137;1192;24970;-61
2022/05/10 05:48:39;;;;;;;;;17.00;15.33;;;27.04;98256.36;;;;117050;1192;25733;-61
2022/05/10 05:51:11;;;;;;;;;11.67;11.33;;;27.10;98255.29;;;;117265;1193;25691;-61
2022/05/10 05:53:40;;;;;;;;;18.00;17.33;;;27.21;98256.02;;;;117216;1193;25094;-62
2022/05/10 05:56:12;;;;;;;;;13.00;13.00;;;27.28;98254.15;;;;117077;1193;25155;-61
2022/05/10 05:58:40;;;;;;;;;22.00;19.00;;;27.25;98251.52;;;;117194;1193;25614;-63
2022/05/10 06:01:15;;;;;;;;;20.50;16.00;;;27.32;98251.55;;;;117139;1193;25852;-63
2022/05/10 06:03:43;;;;;;;;;22.25;21.00;;;27.35;98251.52;;;;117077;1193;25354;-65
2022/05/10 06:06:12;;;;;;;;;19.50;17.50;;;27.35;98248.58;;;;117160;1193;25042;-61
2022/05/10 06:08:47;;;;;;;;;18.75;18.00;;;27.36;98250.20;;;;116942;1193;25122;-66
2022/05/10 06:11:20;;;;;;;;;19.00;16.67;;;27.39;98245.83;;;;117122;1193;25317;-65
2022/05/10 06:13:52;;;;;;;;;23.00;18.25;;;27.40;98243.21;;;;117133;1192;26168;-64
2022/05/10 06:16:22;;;;;;;;;22.25;21.50;;;27.41;98241.46;;;;117070;1193;25353;-68
2022/05/10 06:18:50;;;;;;;;;21.25;18.00;;;27.42;98242.86;;;;117039;1193;25268;-61
2022/05/10 06:21:22;;;;;;;;;19.67;18.67;;;27.44;98242.52;;;;117083;1193;24758;-61
2022/05/10 06:23:50;;;;;;;;;19.75;19.50;;;27.44;98240.52;;;;117068;1193;25066;-65
2022/05/10 06:26:19;;;;;;;;;19.67;18.67;;;27.44;98240.11;;;;117240;1193;25184;-62
2022/05/10 06:28:48;;;;;;;;;22.50;19.50;;;27.54;98238.52;;;;117036;1193;25859;-64
2022/05/10 06:31:18;;;;;;;;;24.67;22.00;;;27.55;98238.45;;;;116991;1193;25576;-61
2022/05/10 06:33:48;;;;;;;;;28.50;27.75;;;27.47;98233.40;;;;117099;1193;25265;-61
2022/05/10 06:36:20;;;;;;;;;30.50;28.00;;;27.58;98235.20;;;;117092;1193;25147;-64
2022/05/10 06:38:50;;;;;;;;;39.00;31.00;;;27.60;98231.77;;;;117262;1193;25645;-67
2022/05/10 06:41:21;;;;;;;;;31.67;28.33;;;27.66;98233.07;;;;117097;1193;25345;-61
2022/05/10 06:43:50;;;;;;;;;33.00;27.00;;;27.62;98232.52;;;;117124;1193;25603;-62
2022/05/10 06:46:24;;;;;;;;;38.00;24.00;;;27.65;98229.73;;;;117180;1193;25643;-59
2022/05/10 06:48:59;;;;;;;;;25.33;20.00;;;27.69;98223.83;;;;117022;1193;25101;-63
2022/05/10 06:51:30;;;;;;;;;22.33;18.67;;;27.64;98224.29;;;;117179;1193;24816;-72
2022/05/10 06:54:02;;;;;;;;;33.33;27.33;;;27.66;98228.55;;;;116996;1193;25026;-66
2022/05/10 06:56:33;;;;;;;;;28.50;23.25;;;27.67;98227.48;;;;117146;1193;25551;-66
2022/05/10 06:59:05;;;;;;;;;24.00;22.33;;;27.75;98228.93;;;;116998;1193;24962;-64
2022/05/10 07:01:34;;;;;;;;;29.25;22.75;;;27.72;98227.65;;;;117156;1193;25577;-65
2022/05/10 07:04:03;;;;;;;;;30.33;26.67;;;27.72;98225.38;;;;117352;1192;24874;-63
2022/05/10 07:06:33;;;;;;;;;23.50;22.75;;;27.61;98230.53;;;;117226;1193;25664;-62
2022/05/10 07:09:04;;;;;;;;;23.00;20.67;;;27.63;98225.11;;;;117159;1193;25663;-65
2022/05/10 07:11:39;;;;;;;;;23.50;21.00;;;27.66;98223.36;;;;117087;1191;25121;-69
2022/05/10 07:14:08;;;;;;;;;23.25;19.50;;;27.72;98220.87;;;;117613;1193;25242;-67
2022/05/10 07:16:38;;;;;;;;;23.75;16.75;;;27.92;98222.45;;;;118653;1191;26429;-69
2022/05/10 07:19:08;;;;;;;;;20.67;18.00;;;28.37;98218.39;;;;117322;1192;24981;-66
2022/05/10 07:21:36;;;;;;;;;19.50;18.00;;;28.38;98216.52;;;;118349;1191;25066;-63
2022/05/10 07:24:04;;;;;;;;;21.25;19.50;;;28.61;98213.25;;;;118527;1192;25486;-61
2022/05/10 07:26:32;;;;;;;;;19.50;18.75;;;28.89;98211.47;;;;118490;1192;24781;-61
2022/05/10 07:29:00;;;;;;;;;18.50;16.75;;;29.08;98210.38;;;;118739;1193;24978;-62
2022/05/10 07:31:31;;;;;;;;;22.00;20.00;;;29.25;98212.21;;;;118374;1193;25074;-61
2022/05/10 07:34:02;;;;;;;;;23.25;19.25;;;29.32;98209.44;;;;118466;1192;24888;-61
2022/05/10 07:36:38;;;;;;;;;22.25;22.00;;;29.36;98210.51;;;;118401;1193;25513;-64
2022/05/10 07:39:10;;;;;;;;;21.00;18.50;;;29.39;98208.25;;;;118510;1192;24764;-64
2022/05/10 07:41:38;;;;;;;;;20.00;16.33;;;29.43;98204.10;;;;117359;1193;25669;-62
2022/05/10 07:44:11;;;;;;;;;18.50;18.00;;;29.16;98200.98;;;;118385;1193;24866;-64
2022/05/10 07:46:40;;;;;;;;;17.75;15.25;;;29.27;98196.39;;;;118643;1193;24927;-68
2022/05/10 07:49:13;;;;;;;;;21.67;19.00;;;29.46;98196.03;;;;118634;1191;24775;-66
2022/05/10 07:51:41;;;;;;;;;23.67;19.00;;;29.69;98193.75;;;;118555;1193;25392;-63
2022/05/10 07:54:13;;;;;;;;;18.67;13.33;;;29.74;98194.20;;;;118370;1192;25709;-63
2022/05/10 07:56:44;;;;;;;;;18.75;15.75;;;29.71;98196.86;;;;118247;1193;25158;-63
2022/05/10 07:59:12;;;;;;;;;17.50;14.25;;;29.78;98193.90;;;;117101;1193;25851;-66
2022/05/10 08:01:41;;;;;;;;;10.00;8.75;;;29.39;98188.64;;;;117596;1193;25190;-68
2022/05/10 08:04:09;;;;;;;;;23.67;17.00;;;29.22;98194.14;;;;117408;1193;24965;-64
2022/05/10 08:06:37;;;;;;;;;19.67;15.00;;;29.14;98193.38;;;;117099;1193;24972;-63
2022/05/10 08:09:09;;;;;;;;;20.75;17.75;;;28.82;98191.07;;;;117050;1194;25264;-72
2022/05/10 08:11:39;;;;;;;;;20.00;15.50;;;28.70;98191.80;;;;117052;1193;24907;-68
2022/05/10 08:14:07;;;;;;;;;19.25;14.25;;;28.63;98191.70;;;;117152;1193;25311;-62
2022/05/10 08:16:34;;;;;;;;;22.50;19.25;;;28.57;98190.70;;;;117095;1193;24935;-59
2022/05/10 08:19:06;;;;;;;;;15.25;9.00;;;28.47;98191.72;;;;117038;1193;26833;-58
2022/05/10 08:21:34;;;;;;;;;19.75;16.75;;;28.36;98187.98;;;;117143;1193;25211;-62
2022/05/10 08:24:06;;;;;;;;;28.75;22.75;;;28.38;98188.29;;;;116961;1193;25334;-61
2022/05/10 08:26:35;;;;;;;;;33.33;29.00;;;28.31;98189.12;;;;117195;1193;24996;-63
2022/05/10 08:29:04;;;;;;;;;44.00;38.33;;;28.30;98191.11;;;;117222;1193;24749;-61
2022/05/10 08:31:32;;;;;;;;;43.50;35.00;;;28.32;98187.80;;;;116961;1192;25808;-64
2022/05/10 08:34:02;;;;;;;;;53.00;43.33;;;28.26;98190.61;;;;116996;1193;25258;-61
2022/05/10 08:36:29;;;;;;;;;40.67;35.00;;;28.20;98190.38;;;;117105;1192;25431;-66
2022/05/10 08:38:58;;;;;;;;;40.33;34.33;;;28.20;98190.16;;;;117107;1193;25408;-63
2022/05/10 08:41:48;;;;;;;;;36.33;31.67;;;28.18;98186.85;;;;117013;1194;25698;-63
2022/05/10 08:44:18;;;;;;;;;29.33;28.33;;;28.22;98182.98;;;;117194;1193;24712;-61
2022/05/10 08:46:51;;;;;;;;;36.33;33.33;;;28.19;98182.77;;;;117029;1193;24744;-63
2022/05/10 08:49:34;;;;;;;;;27.00;22.25;;;28.17;98184.52;;;;117032;1193;25625;-63
2022/05/10 08:52:05;;;;;;;;;28.50;23.00;;;28.19;98179.88;;;;117227;1193;25795;-65
2022/05/10 08:54:37;;;;;;;;;22.75;21.00;;;28.20;98178.66;;;;117019;1193;25087;-63
2022/05/10 08:57:20;;;;;;;;;21.25;20.75;;;28.15;98183.66;;;;117115;1193;25331;-67
2022/05/10 09:00:10;;;;;;;;;18.00;17.50;;;28.25;98182.05;;;;117020;1193;25152;-64
2022/05/10 09:02:44;;;;;;;;;19.00;15.00;;;28.25;98175.77;;;;117013;1194;24886;-61
2022/05/10 09:05:27;;;;;;;;;20.00;16.00;;;28.14;98178.94;;;;117235;1193;25228;-65
2022/05/10 09:08:23;;;;;;;;;18.25;16.00;;;28.18;98176.91;;;;117053;1193;25100;-63
2022/05/10 09:10:51;;;;;;;;;15.00;12.25;;;28.16;98179.30;;;;118364;1191;25255;-62
2022/05/10 09:13:21;;;;;;;;;16.00;13.00;;;28.49;98178.85;;;;118538;1193;25374;-60
2022/05/10 09:15:54;;;;;;;;;15.50;14.75;;;28.80;98171.39;;;;118561;1193;25170;-61
2022/05/10 09:18:39;;;;;;;;;17.00;14.33;;;29.06;98169.87;;;;118059;1193;24769;-60
2022/05/10 09:21:20;;;;;;;;;16.25;12.75;;;29.01;98164.84;;;;117109;1193;24966;-60
2022/05/10 09:23:48;;;;;;;;;15.25;12.25;;;28.71;98162.45;;;;118360;1192;25013;-61
2022/05/10 09:26:16;;;;;;;;;18.00;12.67;;;28.91;98165.61;;;;118482;1193;25511;-67
2022/05/10 09:28:48;;;;;;;;;15.25;10.50;;;29.14;98167.32;;;;118453;1193;24840;-62
2022/05/10 09:34:46;;;;;;;;;15.00;12.25;;;29.43;98161.24;;;;118668;1193;25472;-64
2022/05/10 09:37:32;;;;;;;;;12.67;12.33;;;29.49;98159.45;;;;118428;1193;25137;-65
2022/05/10 09:40:32;;;;;;;;;11.00;10.00;;;29.48;98155.05;;;;118286;1193;25054;-68
2022/05/10 09:43:32;;;;;;;;;14.50;13.50;;;29.64;98150.67;;;;117574;1193;24717;-62
2022/05/10 09:46:10;;;;;;;;;12.67;12.33;;;29.31;98148.61;;;;116944;1193;25020;-60
2022/05/10 09:48:42;;;;;;;;;12.00;9.50;;;28.94;98143.13;;;;116981;1193;25019;-68
2022/05/10 09:51:44;;;;;;;;;12.33;12.00;;;28.65;98136.21;;;;117103;1193;25914;-61
2022/05/10 09:54:25;;;;;;;;;12.00;9.75;;;28.61;98135.58;;;;116899;1191;25741;-64
2022/05/10 09:56:56;;;;;;;;;16.50;14.50;;;28.51;98133.42;;;;117019;1193;25377;-64
2022/05/10 09:59:28;;;;;;;;;8.33;8.33;;;28.38;98130.95;;;;117008;1193;25129;-63
2022/05/10 10:02:01;;;;;;;;;14.75;12.25;;;28.28;98126.30;;;;117087;1193;24824;-68
2022/05/10 10:04:31;;;;;;;;;13.25;12.00;;;28.27;98124.85;;;;116949;1193;25033;-63
2022/05/10 10:07:15;;;;;;;;;13.75;13.75;;;28.25;98119.05;;;;116973;1193;24845;-63
2022/05/10 10:10:25;;;;;;;;;13.33;12.33;;;28.22;98113.97;;;;117129;1193;25837;-62
2022/05/10 10:12:59;;;;;;;;;8.67;8.33;;;28.26;98111.80;;;;116986;1193;25425;-62
2022/05/10 10:15:34;;;;;;;;;9.33;9.33;;;28.25;98107.89;;;;117057;1193;25013;-62
2022/05/10 10:18:08;;;;;;;;;9.75;7.75;;;28.22;98108.86;;;;116989;1193;25701;-66
2022/05/10 10:20:47;;;;;;;;;10.33;9.33;;;28.17;98105.90;;;;116995;1193;25063;-62
2022/05/10 10:23:32;;;;;;;;;8.75;8.75;;;28.10;98101.89;;;;117095;1193;25052;-70
2022/05/10 10:26:19;;;;;;;;;11.75;10.25;;;28.10;98104.15;;;;116998;1192;24885;-64
2022/05/10 10:29:06;;;;;;;;;10.25;10.25;;;28.08;98100.95;;;;117055;1193;25579;-63
2022/05/10 10:31:42;;;;;;;;;12.00;9.25;;;28.16;98098.73;;;;116977;1193;25581;-60
2022/05/10 10:34:23;;;;;;;;;11.75;8.50;;;28.15;98099.79;;;;117156;1193;25594;-61
2022/05/10 10:37:02;;;;;;;;;15.75;12.00;;;28.14;98098.59;;;;116970;1193;25745;-61
2022/05/10 10:39:57;;;;;;;;;11.00;11.00;;;28.13;98094.55;;;;116974;1193;24875;-61
2022/05/10 10:42:31;;;;;;;;;11.25;10.00;;;28.18;98094.68;;;;117099;1193;25229;-66
2022/05/10 10:45:04;;;;;;;;;15.25;13.75;;;28.21;98094.42;;;;116967;1193;25569;-64
2022/05/10 10:47:40;;;;;;;;;10.00;10.00;;;28.21;98092.99;;;;117173;1193;25058;-61
2022/05/10 10:50:30;;;;;;;;;15.33;15.33;;;28.15;98087.63;;;;116948;1193;25290;-60
2022/05/10 10:53:01;;;;;;;;;11.00;10.75;;;28.17;98078.95;;;;117170;1193;24762;-60
2022/05/10 10:55:51;;;;;;;;;18.00;16.00;;;28.18;98078.87;;;;117115;1192;25664;-61
2022/05/10 10:58:30;;;;;;;;;15.00;14.00;;;28.22;98076.63;;;;116970;1193;25670;-61
2022/05/10 11:01:31;;;;;;;;;18.00;15.25;;;28.18;98070.89;;;;117010;1193;25475;-62
2022/05/10 11:04:18;;;;;;;;;16.50;14.50;;;28.19;98067.11;;;;116991;1193;25026;-68
2022/05/10 11:06:53;;;;;;;;;15.00;12.00;;;28.16;98063.11;;;;117081;1193;25474;-63
2022/05/10 11:09:24;;;;;;;;;16.33;15.00;;;28.19;98061.58;;;;117017;1193;25686;-63
2022/05/10 11:11:59;;;;;;;;;14.75;14.25;;;28.13;98062.13;;;;117122;1193;25390;-64
2022/05/10 11:14:27;;;;;;;;;6.33;5.67;;;28.11;98053.39;;;;117033;1193;25015;-67
2022/05/10 11:17:06;;;;;;;;;18.00;13.67;;;28.13;98052.09;;;;117026;1192;25404;-63
2022/05/10 11:19:44;;;;;;;;;9.75;9.75;;;28.12;98038.31;;;;117339;1193;25524;-63
2022/05/10 11:22:38;;;;;;;;;14.00;11.33;;;28.22;98037.36;;;;117770;1192;25719;-65
2022/05/10 11:25:27;;;;;;;;;11.50;9.75;;;28.51;98042.92;;;;117606;1193;25307;-63
2022/05/10 11:28:16;;;;;;;;;12.00;11.00;;;28.59;98044.81;;;;117827;1193;25344;-66
2022/05/10 11:31:03;;;;;;;;;10.25;8.00;;;28.72;98038.99;;;;117960;1192;25284;-67
2022/05/10 11:34:02;;;;;;;;;9.00;9.00;;;28.84;98042.36;;;;117888;1193;25230;-69
2022/05/10 11:36:42;;;;;;;;;11.33;8.33;;;28.93;98039.83;;;;117729;1192;25388;-65
2022/05/10 11:39:39;;;;;;;;;11.00;9.75;;;28.95;98037.25;;;;117936;1191;25351;-65
2022/05/10 11:42:32;;;;;;;;;9.25;9.25;;;29.02;98034.95;;;;117961;1193;25567;-66
2022/05/10 11:45:32;;;;;;;;;12.50;9.25;;;29.10;98032.20;;;;117820;1193;25683;-63
2022/05/10 11:48:24;;;;;;;;;9.33;9.00;;;29.11;98030.50;;;;117687;1191;25693;-62
2022/05/10 11:54:00;;;;;;;;;10.00;10.00;;;29.07;98023.76;;;;117658;1193;25651;-65
2022/05/10 11:56:35;;;;;;;;;7.33;7.33;;;29.04;98019.63;;;;117636;1193;24915;-64
2022/05/10 11:59:12;;;;;;;;;12.67;9.67;;;29.03;98015.08;;;;117430;1192;24740;-64
2022/05/10 12:02:07;;;;;;;;;16.33;11.00;;;28.95;98012.30;;;;117483;1193;25313;-63
2022/05/10 12:04:43;;;;;;;;;13.75;10.25;;;29.00;98008.48;;;;117582;1191;25134;-65
2022/05/10 12:07:20;;;;;;;;;16.50;14.00;;;28.99;98008.56;;;;117688;1193;25277;-66
2022/05/10 12:09:51;;;;;;;;;15.67;14.00;;;29.02;98007.64;;;;117770;1193;25270;-64
2022/05/10 12:12:33;;;;;;;;;14.50;12.75;;;29.06;98004.08;;;;117704;1192;26589;-64
2022/05/10 12:21:20;;;;;;;;;12.25;10.25;;;29.20;97997.76;;;;117940;1192;25367;-70
2022/05/10 12:24:19;;;;;;;;;10.50;10.25;;;29.36;97989.45;;;;118681;1193;26016;-61
2022/05/10 12:27:12;;;;;;;;;10.75;9.50;;;29.62;97983.15;;;;118278;1192;25012;-64
2022/05/10 12:29:43;;;;;;;;;12.00;10.50;;;29.77;97980.33;;;;118299;1193;25437;-64
2022/05/10 12:32:20;;;;;;;;;11.00;9.33;;;29.79;97973.90;;;;118088;1192;24792;-65
2022/05/10 12:34:57;;;;;;;;;11.25;9.50;;;29.84;97968.02;;;;117753;1192;24950;-63
2022/05/10 12:37:30;;;;;;;;;13.33;11.67;;;29.74;97962.69;;;;117877;1193;25304;-65
2022/05/10 12:40:09;;;;;;;;;10.75;10.25;;;29.65;97956.21;;;;117884;1191;24936;-59
2022/05/10 12:42:55;;;;;;;;;11.50;11.50;;;29.65;97953.90;;;;117680;1193;25753;-61
2022/05/10 12:46:01;;;;;;;;;9.25;8.25;;;29.61;97947.81;;;;117635;1193;25551;-63
2022/05/10 12:49:03;;;;;;;;;12.00;10.50;;;29.59;97939.84;;;;117670;1193;26204;-62
2022/05/10 12:51:50;;;;;;;;;13.50;11.50;;;29.57;97936.42;;;;117744;1193;25393;-62
2022/05/10 12:54:42;;;;;;;;;12.50;10.25;;;29.58;97937.73;;;;117603;1193;25559;-64
2022/05/10 12:57:41;;;;;;;;;9.50;9.50;;;29.64;97939.85;;;;117700;1193;25856;-63